Time,TemperatureF,DewpointF,PressureIn,WindDirection,WindDirectionDegrees,WindSpeedMPH,WindSpeedGustMPH,Humidity,HourlyPrecipIn,Conditions,Clouds,dailyrainin,SolarRadiationWatts/m^2,SoftwareType,DateUTC
2013-02-06 00:01:00,61.0,52.0,-100.00,NNE,29,15.0,22.0,73,0.00,,,0.00,0.000000,,2013-02-06 10:01:00,
2013-02-06 00:32:00,61.0,52.0,-100.00,NNE,29,15.0,22.0,73,0.00,,,0.00,0.000000,,2013-02-06 10:32:00,
2013-02-06 00:42:00,61.0,52.0,-100.00,NNE,29,15.0,22.0,73,0.00,,,0.00,0.000000,,2013-02-06 10:42:00,
2013-02-06 00:52:00,61.0,52.0,-100.00,NNE,29,15.0,22.0,73,0.00,,,0.00,0.000000,,2013-02-06 10:52:00,
2013-02-06 01:01:00,60.0,52.0,-100.00,North,2,12.0,26.0,76,0.00,,,0.00,0.000000,,2013-02-06 11:01:00,
2013-02-06 01:32:00,60.0,52.0,-100.00,North,2,12.0,26.0,76,0.00,,,0.00,0.000000,,2013-02-06 11:32:00,
2013-02-06 01:42:00,60.0,52.0,-100.00,North,2,12.0,26.0,76,0.00,,,0.00,0.000000,,2013-02-06 11:42:00,
2013-02-06 01:52:00,60.0,52.0,-100.00,North,2,12.0,26.0,76,0.00,,,0.00,0.000000,,2013-02-06 11:52:00,
2013-02-06 02:01:00,62.0,53.0,-100.00,North,5,10.0,17.0,72,0.00,,,0.00,0.000000,,2013-02-06 12:01:00,
2013-02-06 02:32:00,62.0,53.0,-100.00,North,5,10.0,17.0,72,0.00,,,0.00,0.000000,,2013-02-06 12:32:00,
2013-02-06 02:42:00,62.0,53.0,-100.00,North,5,10.0,17.0,72,0.00,,,0.00,0.000000,,2013-02-06 12:42:00,
2013-02-06 02:52:00,62.0,53.0,-100.00,North,5,10.0,17.0,72,0.00,,,0.00,0.000000,,2013-02-06 12:52:00,
2013-02-06 03:01:00,61.0,53.0,-100.00,NNE,19,12.0,20.0,75,0.00,,,0.00,0.000000,,2013-02-06 13:01:00,
2013-02-06 03:32:00,61.0,53.0,-100.00,NNE,19,12.0,20.0,75,0.00,,,0.00,0.000000,,2013-02-06 13:32:00,
2013-02-06 03:42:00,61.0,53.0,-100.00,NNE,19,12.0,20.0,75,0.00,,,0.00,0.000000,,2013-02-06 13:42:00,
2013-02-06 03:52:00,61.0,53.0,-100.00,NNE,19,12.0,20.0,75,0.00,,,0.00,0.000000,,2013-02-06 13:52:00,
2013-02-06 04:01:00,61.0,53.0,-100.00,North,0,9.0,19.0,75,0.00,,,0.00,0.000000,,2013-02-06 14:01:00,
2013-02-06 04:32:00,61.0,53.0,-100.00,North,0,9.0,19.0,75,0.00,,,0.00,0.000000,,2013-02-06 14:32:00,
2013-02-06 04:42:00,61.0,53.0,-100.00,North,0,9.0,19.0,75,0.00,,,0.00,0.000000,,2013-02-06 14:42:00,
2013-02-06 04:52:00,61.0,53.0,-100.00,North,0,9.0,19.0,75,0.00,,,0.00,0.000000,,2013-02-06 14:52:00,
2013-02-06 05:01:00,61.0,53.0,-100.00,North,11,11.0,16.0,76,0.00,,,0.00,0.000000,,2013-02-06 15:01:00,
2013-02-06 05:32:00,61.0,53.0,-100.00,North,11,11.0,16.0,76,0.00,,,0.00,0.000000,,2013-02-06 15:32:00,
2013-02-06 05:42:00,61.0,53.0,-100.00,North,11,11.0,16.0,76,0.00,,,0.00,0.000000,,2013-02-06 15:42:00,
2013-02-06 05:52:00,61.0,53.0,-100.00,North,11,11.0,16.0,76,0.00,,,0.00,0.000000,,2013-02-06 15:52:00,
2013-02-06 06:01:00,60.0,54.0,-100.00,NNE,13,13.0,18.0,81,0.00,,,0.00,0.000000,,2013-02-06 16:01:00,
2013-02-06 06:22:00,60.0,54.0,-100.00,NNE,13,13.0,18.0,81,0.00,,,0.00,0.000000,,2013-02-06 16:22:00,
2013-02-06 06:32:00,60.0,54.0,-100.00,NNE,13,13.0,18.0,81,0.00,,,0.00,0.000000,,2013-02-06 16:32:00,
2013-02-06 06:42:00,60.0,54.0,-100.00,NNE,13,13.0,18.0,81,0.00,,,0.00,0.000000,,2013-02-06 16:42:00,
2013-02-06 06:52:00,60.0,54.0,-100.00,NNE,13,13.0,18.0,81,0.00,,,0.00,0.000000,,2013-02-06 16:52:00,
2013-02-06 07:01:00,60.0,54.0,-100.00,NNE,15,10.0,17.0,81,0.00,,,0.00,1.000000,,2013-02-06 17:01:00,
2013-02-06 07:22:00,60.0,54.0,-100.00,NNE,15,10.0,17.0,81,0.00,,,0.00,1.000000,,2013-02-06 17:22:00,
2013-02-06 07:32:00,60.0,54.0,-100.00,NNE,15,10.0,17.0,81,0.00,,,0.00,1.000000,,2013-02-06 17:32:00,
2013-02-06 07:42:00,60.0,54.0,-100.00,NNE,15,10.0,17.0,81,0.00,,,0.00,1.000000,,2013-02-06 17:42:00,
2013-02-06 07:52:00,60.0,54.0,-100.00,NNE,15,10.0,17.0,81,0.00,,,0.00,1.000000,,2013-02-06 17:52:00,
2013-02-06 08:01:00,64.0,53.0,-100.00,North,11,14.0,23.0,68,0.00,,,0.00,104.000000,,2013-02-06 18:01:00,
2013-02-06 08:23:00,64.0,53.0,-100.00,North,11,14.0,23.0,68,0.00,,,0.00,104.000000,,2013-02-06 18:23:00,
2013-02-06 08:33:00,64.0,53.0,-100.00,North,11,14.0,23.0,68,0.00,,,0.00,104.000000,,2013-02-06 18:33:00,
2013-02-06 08:42:00,64.0,53.0,-100.00,North,11,14.0,23.0,68,0.00,,,0.00,104.000000,,2013-02-06 18:42:00,
2013-02-06 08:52:00,64.0,53.0,-100.00,North,11,14.0,23.0,68,0.00,,,0.00,104.000000,,2013-02-06 18:52:00,
2013-02-06 09:01:00,68.0,55.0,-100.00,NNE,19,13.0,24.0,63,0.00,,,0.00,325.000000,,2013-02-06 19:01:00,
2013-02-06 09:32:00,68.0,55.0,-100.00,NNE,19,13.0,24.0,63,0.00,,,0.00,325.000000,,2013-02-06 19:32:00,
2013-02-06 09:42:00,68.0,55.0,-100.00,NNE,19,13.0,24.0,63,0.00,,,0.00,325.000000,,2013-02-06 19:42:00,
2013-02-06 09:52:00,68.0,55.0,-100.00,NNE,19,13.0,24.0,63,0.00,,,0.00,325.000000,,2013-02-06 19:52:00,
2013-02-06 10:01:00,72.0,54.0,-100.00,NNE,17,11.0,21.0,53,0.00,,,0.00,550.000000,,2013-02-06 20:01:00,
2013-02-06 10:32:00,72.0,54.0,-100.00,NNE,17,11.0,21.0,53,0.00,,,0.00,550.000000,,2013-02-06 20:32:00,
2013-02-06 10:42:00,72.0,54.0,-100.00,NNE,17,11.0,21.0,53,0.00,,,0.00,550.000000,,2013-02-06 20:42:00,
2013-02-06 10:52:00,72.0,54.0,-100.00,NNE,17,11.0,21.0,53,0.00,,,0.00,550.000000,,2013-02-06 20:52:00,
2013-02-06 11:01:00,74.0,54.0,-100.00,NNE,25,12.0,19.0,50,0.00,,,0.00,599.000000,,2013-02-06 21:01:00,
2013-02-06 11:32:00,74.0,54.0,-100.00,NNE,25,12.0,19.0,50,0.00,,,0.00,599.000000,,2013-02-06 21:32:00,
2013-02-06 11:42:00,74.0,54.0,-100.00,NNE,25,12.0,19.0,50,0.00,,,0.00,599.000000,,2013-02-06 21:42:00,
2013-02-06 11:52:00,74.0,54.0,-100.00,NNE,25,12.0,19.0,50,0.00,,,0.00,599.000000,,2013-02-06 21:52:00,
2013-02-06 12:01:00,74.0,52.0,-100.00,NE,41,15.0,22.0,46,0.00,,,0.00,830.000000,,2013-02-06 22:01:00,
2013-02-06 12:22:00,74.0,52.0,-100.00,NE,41,15.0,22.0,46,0.00,,,0.00,830.000000,,2013-02-06 22:22:00,
2013-02-06 12:32:00,74.0,52.0,-100.00,NE,41,15.0,22.0,46,0.00,,,0.00,830.000000,,2013-02-06 22:32:00,
2013-02-06 12:42:00,74.0,52.0,-100.00,NE,41,15.0,22.0,46,0.00,,,0.00,830.000000,,2013-02-06 22:42:00,
2013-02-06 12:52:00,74.0,52.0,-100.00,NE,41,15.0,22.0,46,0.00,,,0.00,830.000000,,2013-02-06 22:52:00,
2013-02-06 13:01:00,75.0,53.0,-100.00,NNE,30,15.0,22.0,46,0.00,,,0.00,877.000000,,2013-02-06 23:01:00,
2013-02-06 13:32:00,75.0,53.0,-100.00,NNE,30,15.0,22.0,46,0.00,,,0.00,877.000000,,2013-02-06 23:32:00,
2013-02-06 13:42:00,75.0,53.0,-100.00,NNE,30,15.0,22.0,46,0.00,,,0.00,877.000000,,2013-02-06 23:42:00,
2013-02-06 13:52:00,75.0,53.0,-100.00,NNE,30,15.0,22.0,46,0.00,,,0.00,877.000000,,2013-02-06 23:52:00,
2013-02-06 14:01:00,75.0,54.0,-100.00,NNE,27,16.0,24.0,48,0.00,,,0.00,853.000000,,2013-02-07 00:01:00,
2013-02-06 14:32:00,75.0,54.0,-100.00,NNE,27,16.0,24.0,48,0.00,,,0.00,853.000000,,2013-02-07 00:32:00,
2013-02-06 14:42:00,75.0,54.0,-100.00,NNE,27,16.0,24.0,48,0.00,,,0.00,853.000000,,2013-02-07 00:42:00,
2013-02-06 14:52:00,75.0,54.0,-100.00,NNE,27,16.0,24.0,48,0.00,,,0.00,853.000000,,2013-02-07 00:52:00,
2013-02-06 15:01:00,73.0,54.0,-100.00,NNE,30,16.0,24.0,52,0.00,,,0.00,754.000000,,2013-02-07 01:01:00,
2013-02-06 15:21:00,73.0,54.0,-100.00,NNE,30,16.0,24.0,52,0.00,,,0.00,754.000000,,2013-02-07 01:21:00,
2013-02-06 15:32:00,73.0,54.0,-100.00,NNE,30,16.0,24.0,52,0.00,,,0.00,754.000000,,2013-02-07 01:32:00,
2013-02-06 15:42:00,73.0,54.0,-100.00,NNE,30,16.0,24.0,52,0.00,,,0.00,754.000000,,2013-02-07 01:42:00,
2013-02-06 15:52:00,73.0,54.0,-100.00,NNE,30,16.0,24.0,52,0.00,,,0.00,754.000000,,2013-02-07 01:52:00,
2013-02-06 16:01:00,70.0,54.0,-100.00,NNE,32,18.0,27.0,57,0.00,,,0.00,575.000000,,2013-02-07 02:01:00,
2013-02-06 16:32:00,70.0,54.0,-100.00,NNE,32,18.0,27.0,57,0.00,,,0.00,575.000000,,2013-02-07 02:32:00,
2013-02-06 16:42:00,70.0,54.0,-100.00,NNE,32,18.0,27.0,57,0.00,,,0.00,575.000000,,2013-02-07 02:42:00,
2013-02-06 16:52:00,70.0,54.0,-100.00,NNE,32,18.0,27.0,57,0.00,,,0.00,575.000000,,2013-02-07 02:52:00,
2013-02-06 17:01:00,67.0,55.0,-100.00,NNE,18,18.0,27.0,65,0.00,,,0.00,282.000000,,2013-02-07 03:01:00,
2013-02-06 17:21:00,67.0,55.0,-100.00,NNE,18,18.0,27.0,65,0.00,,,0.00,282.000000,,2013-02-07 03:21:00,
2013-02-06 17:32:00,67.0,55.0,-100.00,NNE,18,18.0,27.0,65,0.00,,,0.00,282.000000,,2013-02-07 03:32:00,
2013-02-06 17:42:00,67.0,55.0,-100.00,NNE,18,18.0,27.0,65,0.00,,,0.00,282.000000,,2013-02-07 03:42:00,
2013-02-06 17:52:00,67.0,55.0,-100.00,NNE,18,18.0,27.0,65,0.00,,,0.00,282.000000,,2013-02-07 03:52:00,
2013-02-06 18:01:00,65.0,55.0,-100.00,NNE,17,16.0,27.0,69,0.00,,,0.00,116.000000,,2013-02-07 04:01:00,
2013-02-06 18:22:00,65.0,55.0,-100.00,NNE,17,16.0,27.0,69,0.00,,,0.00,116.000000,,2013-02-07 04:22:00,
2013-02-06 18:32:00,65.0,55.0,-100.00,NNE,17,16.0,27.0,69,0.00,,,0.00,116.000000,,2013-02-07 04:32:00,
2013-02-06 18:42:00,65.0,55.0,-100.00,NNE,17,16.0,27.0,69,0.00,,,0.00,116.000000,,2013-02-07 04:42:00,
2013-02-06 18:53:00,65.0,55.0,-100.00,NNE,17,16.0,27.0,69,0.00,,,0.00,116.000000,,2013-02-07 04:53:00,
2013-02-06 19:01:00,63.0,55.0,-100.00,North,9,13.0,25.0,75,0.00,,,0.00,5.000000,,2013-02-07 05:01:00,
2013-02-06 19:22:00,63.0,55.0,-100.00,North,9,13.0,25.0,75,0.00,,,0.00,5.000000,,2013-02-07 05:22:00,
2013-02-06 19:32:00,63.0,55.0,-100.00,North,9,13.0,25.0,75,0.00,,,0.00,5.000000,,2013-02-07 05:32:00,
2013-02-06 19:42:00,63.0,55.0,-100.00,North,9,13.0,25.0,75,0.00,,,0.00,5.000000,,2013-02-07 05:42:00,
2013-02-06 19:52:00,63.0,55.0,-100.00,North,9,13.0,25.0,75,0.00,,,0.00,5.000000,,2013-02-07 05:52:00,
2013-02-06 20:01:00,63.0,55.0,-100.00,NNE,20,13.0,21.0,75,0.00,,,0.00,0.000000,,2013-02-07 06:01:00,
2013-02-06 20:32:00,63.0,55.0,-100.00,NNE,20,13.0,21.0,75,0.00,,,0.00,0.000000,,2013-02-07 06:32:00,
2013-02-06 20:43:00,63.0,55.0,-100.00,NNE,20,13.0,21.0,75,0.00,,,0.00,0.000000,,2013-02-07 06:43:00,
2013-02-06 20:52:00,63.0,55.0,-100.00,NNE,20,13.0,21.0,75,0.00,,,0.00,0.000000,,2013-02-07 06:52:00,
2013-02-06 21:01:00,63.0,54.0,-100.00,NNE,17,14.0,21.0,72,0.00,,,0.00,0.000000,,2013-02-07 07:01:00,
2013-02-06 21:32:00,63.0,54.0,-100.00,NNE,17,14.0,21.0,72,0.00,,,0.00,0.000000,,2013-02-07 07:32:00,
2013-02-06 21:42:00,63.0,54.0,-100.00,NNE,17,14.0,21.0,72,0.00,,,0.00,0.000000,,2013-02-07 07:42:00,
2013-02-06 21:52:00,63.0,54.0,-100.00,NNE,17,14.0,21.0,72,0.00,,,0.00,0.000000,,2013-02-07 07:52:00,
2013-02-06 22:01:00,62.0,56.0,-100.00,NNE,22,12.0,23.0,81,0.00,,,0.00,0.000000,,2013-02-07 08:01:00,
2013-02-06 22:32:00,62.0,56.0,-100.00,NNE,22,12.0,23.0,81,0.00,,,0.00,0.000000,,2013-02-07 08:32:00,
2013-02-06 22:42:00,62.0,56.0,-100.00,NNE,22,12.0,23.0,81,0.00,,,0.00,0.000000,,2013-02-07 08:42:00,
2013-02-06 22:52:00,62.0,56.0,-100.00,NNE,22,12.0,23.0,81,0.00,,,0.00,0.000000,,2013-02-07 08:52:00,
2013-02-06 23:01:00,63.0,55.0,-100.00,North,358,10.0,23.0,76,0.00,,,0.00,0.000000,,2013-02-07 09:01:00,
2013-02-06 23:32:00,63.0,55.0,-100.00,North,358,10.0,23.0,76,0.00,,,0.00,0.000000,,2013-02-07 09:32:00,
2013-02-06 23:42:00,63.0,55.0,-100.00,North,358,10.0,23.0,76,0.00,,,0.00,0.000000,,2013-02-07 09:42:00,
2013-02-06 23:52:00,63.0,55.0,-100.00,North,358,10.0,23.0,76,0.00,,,0.00,0.000000,,2013-02-07 09:52:00,